createdAt,value
2024-01-24T00:05:27.821Z,98379.78
2024-01-24T00:15:32.309Z,98378.34
2024-01-24T00:25:35.031Z,98363.03
2024-01-24T00:35:39.449Z,98349.34
2024-01-24T00:45:42.238Z,98304.31
2024-01-24T00:55:47.426Z,98285.75
2024-01-24T01:05:50.701Z,98322.16
2024-01-24T01:15:55.209Z,98276.88
2024-01-24T01:25:57.980Z,98255.03
2024-01-24T01:36:08.948Z,98252.50
2024-01-24T01:46:21.000Z,98245.75
2024-01-24T01:56:25.873Z,98225.53
2024-01-24T02:06:30.093Z,98183.75
2024-01-24T02:16:34.354Z,98199.88
2024-01-24T02:26:38.707Z,98218.19
2024-01-24T02:36:41.491Z,98214.41
2024-01-24T02:46:45.496Z,98210.78
2024-01-24T02:56:48.378Z,98193.47
2024-01-24T03:06:52.795Z,98192.22
2024-01-24T03:16:55.581Z,98194.16
2024-01-24T03:26:59.705Z,98220.44
2024-01-24T03:37:02.703Z,98198.38
2024-01-24T03:47:07.267Z,98183.09
2024-01-24T03:57:10.069Z,98179.56
2024-01-24T04:07:14.156Z,98161.75
2024-01-24T04:17:16.929Z,98170.31
2024-01-24T04:27:20.885Z,98160.78
2024-01-24T04:37:23.732Z,98166.72
2024-01-24T04:47:27.990Z,98154.72
2024-01-24T04:57:30.860Z,98150.16
2024-01-24T05:07:35.647Z,98125.94
2024-01-24T05:17:40.228Z,98122.84
2024-01-24T05:27:44.490Z,98118.22
2024-01-24T05:37:47.377Z,98094.78
2024-01-24T05:47:51.595Z,98126.31
2024-01-24T05:57:54.523Z,98137.72
2024-01-24T06:07:58.703Z,98166.34
2024-01-24T06:18:01.558Z,98153.94
2024-01-24T06:28:06.388Z,98118.97
2024-01-24T06:38:09.272Z,98159.44
2024-01-24T06:48:13.707Z,98193.34
2024-01-24T06:58:16.549Z,98211.41
2024-01-24T07:08:20.745Z,98237.22
2024-01-24T07:18:23.681Z,98239.41
2024-01-24T07:28:30.292Z,98279.13
2024-01-24T07:38:33.366Z,98289.97
2024-01-24T07:48:37.706Z,98307.81
2024-01-24T07:58:41.911Z,98312.53
2024-01-24T08:08:46.349Z,98359.47
2024-01-24T08:18:50.472Z,98328.88
2024-01-24T08:28:54.721Z,98383.16
2024-01-24T08:38:57.492Z,98367.16
2024-01-24T08:49:04.083Z,98398.34
2024-01-24T08:59:07.249Z,98395.91
2024-01-24T09:09:15.240Z,98420.50
2024-01-24T09:19:19.053Z,98440.91
2024-01-24T09:29:23.517Z,98445.78
2024-01-24T09:39:27.025Z,98458.84
2024-01-24T09:49:33.129Z,98464.47
2024-01-24T09:59:36.045Z,98482.59
2024-01-24T10:09:40.178Z,98470.69
2024-01-24T10:19:43.395Z,98487.31
2024-01-24T10:29:47.712Z,98492.06
2024-01-24T10:39:53.572Z,98518.50
2024-01-24T10:50:02.227Z,98516.09
2024-01-24T11:00:07.164Z,98554.94
2024-01-24T11:10:17.918Z,98532.88
2024-01-24T11:20:23.205Z,98552.00
2024-01-24T11:30:40.569Z,98574.63
2024-01-24T11:40:45.230Z,98579.44
2024-01-24T11:50:55.846Z,98600.00
2024-01-24T12:01:00.879Z,98633.16
2024-01-24T12:11:05.885Z,98621.56
2024-01-24T12:21:10.410Z,98633.28
2024-01-24T12:31:15.086Z,98640.06
2024-01-24T12:41:18.476Z,98658.25
2024-01-24T12:51:23.161Z,98654.69
2024-01-24T13:01:26.072Z,98653.03
2024-01-24T13:11:30.420Z,98655.59
2024-01-24T13:21:33.867Z,98655.25
2024-01-24T13:31:38.025Z,98652.69
2024-01-24T13:41:41.070Z,98721.72
2024-01-24T13:51:45.821Z,98691.50
2024-01-24T14:01:54.066Z,98696.22
2024-01-24T14:12:04.048Z,98722.25
2024-01-24T14:22:07.619Z,98728.84
2024-01-24T14:32:12.109Z,98743.16
2024-01-24T14:42:15.089Z,98755.25
2024-01-24T14:52:19.313Z,98761.69
2024-01-24T15:02:22.102Z,98779.47
2024-01-24T15:12:28.558Z,98795.50
2024-01-24T15:22:31.648Z,98821.88
2024-01-24T15:32:35.874Z,98830.25
2024-01-24T15:42:42.952Z,98844.31
2024-01-24T15:52:48.415Z,98835.97
2024-01-24T16:02:51.437Z,98863.31
2024-01-24T16:12:59.478Z,98865.53
2024-01-24T16:23:02.440Z,98850.44
2024-01-24T16:33:06.811Z,98884.44
2024-01-24T16:43:10.309Z,98909.84
2024-01-24T16:53:14.788Z,98901.13
2024-01-24T17:03:17.578Z,98919.84
2024-01-24T17:13:22.904Z,98900.69
2024-01-24T17:23:25.766Z,98932.00
2024-01-24T17:33:30.247Z,98947.78
2024-01-24T17:43:35.084Z,98957.44
2024-01-24T17:53:39.869Z,98955.13
2024-01-24T18:03:42.725Z,98966.91
2024-01-24T18:13:46.912Z,98986.47
2024-01-24T18:23:50.004Z,98996.84
2024-01-24T18:33:56.377Z,98985.38
2024-01-24T18:43:59.352Z,99007.38
2024-01-24T18:54:03.798Z,99016.56
2024-01-24T19:04:06.842Z,99023.06
2024-01-24T19:14:11.252Z,99036.28
2024-01-24T19:24:14.354Z,99021.59
2024-01-24T19:34:18.403Z,99030.00
2024-01-24T19:44:23.091Z,99009.59
2024-01-24T19:54:27.977Z,99020.13
2024-01-24T20:04:31.380Z,99015.44
2024-01-24T20:14:36.824Z,99023.63
2024-01-24T20:24:39.917Z,99034.50
2024-01-24T20:34:44.194Z,99027.81
2024-01-24T20:44:47.087Z,99040.66
2024-01-24T20:54:53.305Z,99046.34
2024-01-24T21:04:56.275Z,99033.88
2024-01-24T21:15:06.190Z,99049.63
2024-01-24T21:25:10.161Z,99047.72
2024-01-24T21:35:14.469Z,99059.09
2024-01-24T21:45:17.658Z,99039.88
2024-01-24T21:55:21.664Z,99052.84
2024-01-24T22:05:24.649Z,99059.94
2024-01-24T22:15:28.992Z,99069.88
2024-01-24T22:25:33.985Z,99055.84
2024-01-24T22:35:43.204Z,99063.94
2024-01-24T22:45:46.470Z,99062.28
2024-01-24T22:55:50.682Z,99071.50
2024-01-24T23:05:57.111Z,99081.72
2024-01-24T23:16:01.500Z,99077.97
2024-01-24T23:26:04.390Z,99081.53
2024-01-24T23:36:09.500Z,99088.16
2024-01-24T23:46:12.939Z,99073.50
2024-01-24T23:56:17.100Z,99075.16
